Time;durP1;ratioP1;P1;durP2;ratioP2;P2;SDS_P1;SDS_P2;PMS_P1;PMS_P2;Temp;Humidity;BMP_temperature;BMP_pressure;BME280_temperature;BME280_humidity;BME280_pressure;Samples;Min_cycle;Max_cycle;Signal;HPM_P1;HPM_P2
2024/02/20 00:00:54;;;;;;;3.30;2.20;;;;;;;8.19;68.42;93479.63;2065423;69;20152;-77
2024/02/20 00:03:23;;;;;;;5.55;2.45;;;;;;;8.18;68.91;93473.28;2067363;69;20136;-78
2024/02/20 00:05:51;;;;;;;4.43;2.03;;;;;;;8.12;69.00;93467.19;2065465;69;20164;-75
2024/02/20 00:08:17;;;;;;;3.45;2.20;;;;;;;8.15;68.81;93460.41;2064739;69;20144;-76
2024/02/20 00:10:43;;;;;;;5.70;2.10;;;;;;;7.88;69.63;93471.56;2064911;69;20153;-77
2024/02/20 00:13:08;;;;;;;3.58;1.60;;;;;;;7.40;71.81;93460.53;2064967;69;20133;-75
2024/02/20 00:15:34;;;;;;;2.88;1.88;;;;;;;7.76;70.30;93468.47;2065298;69;20211;-78
2024/02/20 00:18:00;;;;;;;6.78;2.50;;;;;;;7.63;70.80;93457.56;2065112;69;20567;-75
2024/02/20 00:20:25;;;;;;;3.42;2.08;;;;;;;7.71;70.68;93463.09;2065218;69;20229;-76
2024/02/20 00:22:51;;;;;;;3.17;2.10;;;;;;;7.61;71.44;93468.59;2064965;69;20152;-76
2024/02/20 00:25:17;;;;;;;6.68;2.22;;;;;;;7.18;73.23;93467.78;2065252;69;20144;-76
2024/02/20 00:27:43;;;;;;;3.88;2.38;;;;;;;7.21;72.76;93465.94;2064416;69;20164;-79
2024/02/20 00:30:10;;;;;;;4.68;2.05;;;;;;;7.34;72.83;93468.44;2064769;69;20157;-74
2024/02/20 00:32:36;;;;;;;4.45;2.40;;;;;;;7.02;73.36;93461.56;2064071;69;20493;-75
2024/02/20 00:35:02;;;;;;;4.70;2.70;;;;;;;7.18;74.69;93458.66;2065095;69;20161;-75
2024/02/20 00:37:28;;;;;;;4.35;2.92;;;;;;;7.28;73.73;93459.50;2065079;69;20177;-75
2024/02/20 00:39:54;;;;;;;5.82;2.90;;;;;;;7.09;73.73;93466.34;2065060;69;20152;-75
2024/02/20 00:42:20;;;;;;;4.43;2.88;;;;;;;7.21;73.74;93452.66;2065144;69;20167;-75
2024/02/20 00:44:46;;;;;;;4.57;3.10;;;;;;;7.39;73.30;93459.06;2065137;69;20153;-79
2024/02/20 00:47:13;;;;;;;5.05;3.28;;;;;;;7.11;74.33;93460.22;2065241;69;20144;-77
2024/02/20 00:49:40;;;;;;;4.80;3.22;;;;;;;7.39;73.14;93454.19;2065153;69;20152;-77
2024/02/20 00:52:06;;;;;;;5.05;3.40;;;;;;;7.60;72.50;93467.09;2065121;69;20234;-77
2024/02/20 00:54:32;;;;;;;6.20;3.00;;;;;;;7.71;71.90;93466.66;2065238;69;20601;-75
2024/02/20 00:56:57;;;;;;;5.18;3.15;;;;;;;7.69;71.62;93462.91;2064927;69;20242;-76
2024/02/20 00:59:23;;;;;;;6.30;3.83;;;;;;;7.67;72.71;93469.09;2065233;69;20145;-77
2024/02/20 01:01:50;;;;;;;7.22;3.95;;;;;;;7.74;71.59;93471.09;2065152;69;20149;-75
2024/02/20 01:04:16;;;;;;;7.78;5.10;;;;;;;7.74;72.88;93473.88;2065001;69;20163;-75
2024/02/20 01:06:41;;;;;;;7.18;4.80;;;;;;;7.71;72.57;93458.25;2064539;69;20133;-74
2024/02/20 01:13:23;;;;;;;6.97;4.97;;;;;;;7.76;73.12;93471.28;2065421;69;20120;-78
2024/02/20 01:15:49;;;;;;;7.88;5.63;;;;;;;7.39;74.36;93467.47;2065020;69;20639;-75
2024/02/20 01:18:14;;;;;;;6.97;5.43;;;;;;;7.17;76.50;93463.50;2065130;69;20224;-78
2024/02/20 01:20:40;;;;;;;7.80;5.55;;;;;;;7.08;77.19;93464.88;2065170;69;20477;-76
2024/02/20 01:23:06;;;;;;;7.80;5.63;;;;;;;7.06;77.46;93459.13;2064827;69;20152;-75
2024/02/20 01:25:32;;;;;;;8.57;5.75;;;;;;;7.43;76.21;93459.41;2064841;69;20137;-74
2024/02/20 01:27:58;;;;;;;6.57;5.03;;;;;;;7.60;74.35;93455.88;2064849;69;20527;-77
2024/02/20 01:30:24;;;;;;;8.35;5.80;;;;;;;7.58;75.07;93445.25;2065206;69;20140;-76
2024/02/20 01:32:51;;;;;;;8.55;5.60;;;;;;;7.76;73.88;93462.13;2065090;69;20148;-76
2024/02/20 01:35:17;;;;;;;8.18;5.90;;;;;;;7.72;74.43;93451.31;2065162;69;20234;-75
2024/02/20 01:37:43;;;;;;;8.00;5.35;;;;;;;7.63;74.41;93435.88;2064565;69;20248;-74
2024/02/20 01:40:09;;;;;;;8.00;6.15;;;;;;;7.52;74.97;93444.03;2064998;69;20617;-75
2024/02/20 01:42:37;;;;;;;7.82;5.70;;;;;;;7.43;75.67;93445.41;2064931;69;20148;-76
2024/02/20 01:45:03;;;;;;;8.93;5.18;;;;;;;7.64;73.38;93442.22;2065019;69;20157;-75
2024/02/20 01:47:29;;;;;;;10.10;6.35;;;;;;;7.28;76.71;93437.84;2064963;69;20331;-75
2024/02/20 01:49:57;;;;;;;9.82;6.15;;;;;;;7.28;76.09;93429.44;2065142;69;20624;-74
2024/02/20 01:52:23;;;;;;;8.25;5.70;;;;;;;7.61;75.47;93443.38;2065218;69;20192;-75
2024/02/20 01:54:49;;;;;;;8.57;5.90;;;;;;;7.64;75.47;93447.81;2065117;69;20145;-78
2024/02/20 01:57:15;;;;;;;9.50;5.88;;;;;;;7.52;75.44;93430.03;2065234;69;20568;-75
2024/02/20 01:59:41;;;;;;;8.27;5.78;;;;;;;7.69;75.03;93444.03;2065232;69;20145;-75
2024/02/20 02:02:07;;;;;;;9.15;6.30;;;;;;;7.72;74.43;93445.69;2065177;69;20632;-75
2024/02/20 02:04:33;;;;;;;11.18;6.78;;;;;;;7.78;74.43;93443.41;2065064;69;20160;-75
2024/02/20 02:06:59;;;;;;;8.98;6.30;;;;;;;7.82;74.01;93443.72;2064661;69;20187;-76
2024/02/20 02:09:24;;;;;;;11.30;6.70;;;;;;;7.89;74.45;93445.00;2064925;69;20248;-78
2024/02/20 02:11:50;;;;;;;10.57;6.93;;;;;;;7.91;74.00;93436.72;2065150;69;20239;-76
2024/02/20 02:14:17;;;;;;;9.10;7.10;;;;;;;7.82;74.44;93434.59;2065196;69;20149;-76
2024/02/20 02:16:46;;;;;;;9.23;6.50;;;;;;;7.79;74.20;93428.09;2064290;69;20684;-75
2024/02/20 02:19:12;;;;;;;8.52;6.50;;;;;;;7.90;73.95;93427.59;2065002;69;20169;-76
2024/02/20 02:21:37;;;;;;;8.05;6.35;;;;;;;7.66;74.14;93424.84;2065089;69;20200;-76
2024/02/20 02:24:09;;;;;;;9.00;6.93;;;;;;;7.73;74.73;93433.16;2065489;69;20148;-75
2024/02/20 02:26:35;;;;;;;10.38;7.40;;;;;;;7.56;75.47;93430.34;2064304;69;20141;-75
2024/02/20 02:29:01;;;;;;;11.13;7.03;;;;;;;7.72;74.36;93426.09;2064950;69;20220;-75
2024/02/20 02:31:26;;;;;;;9.23;6.88;;;;;;;7.78;75.09;93425.84;2064983;69;20228;-75
2024/02/20 02:33:52;;;;;;;10.15;7.35;;;;;;;7.09;77.22;93432.03;2064945;69;20199;-77
2024/02/20 02:36:17;;;;;;;10.98;7.47;;;;;;;7.23;77.17;93426.88;2064497;69;20616;-76
2024/02/20 02:38:43;;;;;;;8.55;7.10;;;;;;;7.52;76.71;93433.56;2065127;69;20156;-76
2024/02/20 02:41:12;;;;;;;13.10;7.53;;;;;;;7.63;75.68;93435.88;2065064;69;20240;-77
2024/02/20 02:43:38;;;;;;;10.02;7.10;;;;;;;7.41;77.04;93438.88;2064747;69;20141;-77
2024/02/20 02:46:04;;;;;;;10.18;7.65;;;;;;;7.53;76.40;93439.91;2064920;69;20137;-77
2024/02/20 02:48:29;;;;;;;10.45;7.38;;;;;;;7.56;76.16;93450.72;2065010;69;20446;-75
2024/02/20 02:50:55;;;;;;;11.63;7.13;;;;;;;7.67;76.05;93443.88;2064920;69;20152;-75
2024/02/20 02:53:21;;;;;;;9.75;7.03;;;;;;;7.76;74.89;93443.25;2065328;69;20249;-79
2024/02/20 02:59:34;;;;;;;11.63;7.72;;;;;;;7.68;74.90;93445.38;2065105;69;20132;-76
2024/02/20 03:02:03;;;;;;;10.63;7.13;;;;;;;7.69;75.81;93448.91;2064528;69;20248;-75
2024/02/20 03:04:32;;;;;;;11.00;7.32;;;;;;;7.74;75.32;93447.91;2064820;69;20136;-75
2024/02/20 03:06:58;;;;;;;12.23;7.55;;;;;;;7.74;74.90;93445.13;2064498;69;20260;-76
2024/02/20 03:09:25;;;;;;;9.60;7.00;;;;;;;7.80;75.50;93451.25;2064402;69;20606;-75
2024/02/20 03:11:51;;;;;;;9.20;7.50;;;;;;;7.75;75.33;93446.63;2064241;69;20152;-76
2024/02/20 03:14:21;;;;;;;9.50;7.10;;;;;;;7.75;75.43;93441.75;2064818;69;20589;-76
2024/02/20 03:16:47;;;;;;;10.82;7.07;;;;;;;7.85;74.18;93450.25;2064487;69;20528;-76
2024/02/20 03:19:14;;;;;;;10.68;7.55;;;;;;;7.65;75.31;93452.09;2064937;69;20169;-76
2024/02/20 03:21:41;;;;;;;11.02;7.90;;;;;;;7.52;76.64;93447.56;2064310;69;20165;-76
2024/02/20 03:24:07;;;;;;;10.05;7.80;;;;;;;7.47;77.30;93447.78;2064263;69;20144;-76
2024/02/20 03:26:33;;;;;;;11.50;7.63;;;;;;;7.70;76.15;93453.19;2064933;69;20160;-75
2024/02/20 03:28:59;;;;;;;9.38;7.30;;;;;;;7.40;77.16;93454.94;2067189;69;20175;-76
2024/02/20 03:31:25;;;;;;;10.57;7.40;;;;;;;7.08;78.71;93445.28;2065009;69;20214;-76
2024/02/20 03:33:50;;;;;;;12.23;8.18;;;;;;;7.07;79.21;93445.84;2064823;69;20161;-77
2024/02/20 03:36:17;;;;;;;10.40;7.30;;;;;;;7.43;77.67;93453.06;2065016;69;20152;-76
2024/02/20 03:38:43;;;;;;;12.40;7.30;;;;;;;7.62;76.39;93461.69;2064438;69;20148;-77
2024/02/20 03:41:09;;;;;;;10.43;7.85;;;;;;;7.57;76.07;93440.25;2064635;69;20541;-77
2024/02/20 03:43:35;;;;;;;9.95;7.53;;;;;;;7.66;76.81;93453.63;2064694;69;20248;-75
2024/02/20 03:46:05;;;;;;;8.60;6.88;;;;;;;7.73;76.08;93455.59;2064741;69;20155;-75
2024/02/20 03:48:31;;;;;;;12.57;7.30;;;;;;;7.63;76.90;93452.69;2064712;69;20236;-75
2024/02/20 03:50:57;;;;;;;10.55;7.70;;;;;;;7.58;77.37;93447.31;2064788;69;20232;-76
2024/02/20 03:53:23;;;;;;;9.32;6.95;;;;;;;7.68;76.22;93448.16;2064823;69;20164;-76
2024/02/20 03:55:48;;;;;;;11.88;7.65;;;;;;;7.51;76.67;93445.31;2064487;69;20577;-79
2024/02/20 03:58:14;;;;;;;13.13;8.07;;;;;;;7.49;77.35;93448.72;2064186;69;20145;-75
2024/02/20 04:00:40;;;;;;;11.52;7.88;;;;;;;7.55;77.43;93449.22;2064710;69;20192;-75
2024/02/20 04:03:06;;;;;;;10.68;7.68;;;;;;;7.59;77.34;93457.22;2064778;69;20585;-75
2024/02/20 04:05:33;;;;;;;11.82;7.60;;;;;;;7.52;76.54;93455.97;2064772;69;20235;-76
2024/02/20 04:07:59;;;;;;;9.20;7.03;;;;;;;7.47;77.11;93456.94;2065122;69;20693;-76
2024/02/20 04:10:27;;;;;;;8.60;6.60;;;;;;;7.23;77.82;93464.03;2065068;69;20169;-76
2024/02/20 04:12:53;;;;;;;8.85;6.85;;;;;;;7.41;77.19;93464.81;2065121;69;20169;-75
2024/02/20 04:15:20;;;;;;;10.57;7.20;;;;;;;7.48;77.20;93468.91;2065006;69;20556;-78
2024/02/20 04:17:46;;;;;;;11.65;6.70;;;;;;;7.57;76.22;93473.88;2065310;69;20184;-76
2024/02/20 04:20:12;;;;;;;8.85;6.97;;;;;;;7.60;75.92;93481.84;2064928;69;20180;-73
2024/02/20 04:22:39;;;;;;;9.23;7.00;;;;;;;7.62;75.44;93479.22;2064858;69;20200;-76
2024/02/20 04:25:06;;;;;;;10.02;7.32;;;;;;;7.66;76.23;93486.50;2065201;69;20148;-76
2024/02/20 04:27:33;;;;;;;10.23;7.05;;;;;;;7.65;75.96;93488.53;2064720;69;20171;-76
2024/02/20 04:33:46;;;;;;;7.80;6.25;;;;;;;7.64;76.13;93490.59;2064769;69;20140;-75
2024/02/20 04:36:12;;;;;;;8.82;5.00;;;;;;;7.64;76.59;93493.41;2065119;69;20153;-76
2024/02/20 04:38:40;;;;;;;10.10;5.63;;;;;;;7.70;75.69;93493.19;2065196;69;20179;-76
2024/02/20 04:41:06;;;;;;;9.18;5.45;;;;;;;7.70;76.32;93492.44;2065221;69;20527;-74
2024/02/20 04:43:32;;;;;;;9.23;5.38;;;;;;;7.66;77.27;93494.91;2064619;69;20236;-74
2024/02/20 04:45:57;;;;;;;8.30;4.97;;;;;;;7.71;76.21;93500.28;2064891;69;20655;-75
2024/02/20 04:48:23;;;;;;;3.55;2.65;;;;;;;7.70;76.91;93496.00;2065010;69;20141;-74
2024/02/20 04:50:49;;;;;;;3.83;2.30;;;;;;;7.68;76.27;93493.00;2065386;69;20160;-75
2024/02/20 04:53:14;;;;;;;3.20;2.30;;;;;;;7.74;75.58;93496.31;2065298;69;20136;-74
2024/02/20 04:55:40;;;;;;;8.10;3.88;;;;;;;7.73;75.70;93492.03;2064914;69;20144;-74
2024/02/20 04:58:06;;;;;;;5.43;3.38;;;;;;;7.76;75.40;93493.69;2065585;69;20531;-74
2024/02/20 05:00:32;;;;;;;8.00;5.35;;;;;;;7.72;76.02;93484.19;2065485;69;20149;-75
2024/02/20 05:02:57;;;;;;;9.07;5.47;;;;;;;7.66;76.03;93492.09;2064984;69;20159;-74
2024/02/20 05:05:23;;;;;;;4.97;3.67;;;;;;;7.65;76.83;93496.94;2065289;69;20152;-75
2024/02/20 05:07:49;;;;;;;4.00;2.55;;;;;;;7.70;75.93;93492.44;2065286;69;20187;-75
2024/02/20 05:10:15;;;;;;;6.03;3.80;;;;;;;7.70;75.84;93490.38;2065266;69;20148;-74
2024/02/20 05:12:43;;;;;;;8.48;4.93;;;;;;;7.72;76.26;93487.75;2065376;69;20247;-75
2024/02/20 05:18:56;;;;;;;5.38;4.10;;;;;;;7.39;77.45;93484.28;2065028;69;20209;-74
2024/02/20 05:21:21;;;;;;;6.97;4.40;;;;;;;7.39;77.37;93487.06;2065543;69;20236;-75
2024/02/20 05:23:47;;;;;;;8.10;4.20;;;;;;;7.41;76.83;93478.09;2064864;69;20137;-74
2024/02/20 05:26:13;;;;;;;4.78;3.40;;;;;;;7.36;76.91;93479.81;2065374;69;20600;-74
2024/02/20 05:28:38;;;;;;;6.35;3.72;;;;;;;7.32;77.21;93482.25;2065248;69;20144;-77
2024/02/20 05:31:28;;;;;;;6.07;3.35;;;;;;;7.29;76.91;93489.78;2065277;69;20215;-75
2024/02/20 05:33:59;;;;;;;4.40;3.00;;;;;;;7.26;76.55;93485.28;2065353;69;20588;-78
2024/02/20 05:36:33;;;;;;;6.63;3.05;;;;;;;7.26;75.95;93490.91;2065408;69;20141;-75
2024/02/20 05:39:00;;;;;;;2.88;2.00;;;;;;;7.31;75.90;93497.59;2065333;69;20512;-74
2024/02/20 05:41:30;;;;;;;3.85;1.90;;;;;;;7.21;76.49;93500.28;2065248;69;20215;-75
2024/02/20 05:44:00;;;;;;;4.22;2.90;;;;;;;7.19;76.50;93486.06;2065170;69;20160;-76
2024/02/20 05:46:27;;;;;;;3.85;2.72;;;;;;;7.25;76.27;93499.88;2065195;69;20184;-77
2024/02/20 05:48:53;;;;;;;5.20;3.47;;;;;;;7.22;77.14;93515.00;2064538;69;20523;-75
2024/02/20 05:51:19;;;;;;;5.53;3.50;;;;;;;7.24;77.16;93513.16;2065314;69;20171;-74
2024/02/20 05:53:45;;;;;;;4.65;3.50;;;;;;;7.28;77.11;93521.88;2065352;69;20141;-78
2024/02/20 05:56:10;;;;;;;4.53;2.72;;;;;;;7.21;77.03;93516.34;2065245;69;20161;-78
2024/02/20 05:58:36;;;;;;;3.35;2.58;;;;;;;7.26;77.05;93512.56;2065297;69;20236;-79
2024/02/20 06:01:02;;;;;;;3.45;2.40;;;;;;;7.30;76.69;93510.84;2064858;69;20596;-77
2024/02/20 06:03:28;;;;;;;3.72;2.45;;;;;;;7.30;76.48;93510.84;2064980;69;20226;-77
2024/02/20 06:05:53;;;;;;;3.20;2.00;;;;;;;7.33;76.59;93523.72;2065236;69;20138;-78
2024/02/20 06:08:21;;;;;;;3.00;2.20;;;;;;;7.29;76.75;93526.19;2065164;69;20133;-74
2024/02/20 06:10:46;;;;;;;2.50;1.80;;;;;;;7.37;75.70;93535.25;2065156;69;20148;-74
2024/02/20 06:13:12;;;;;;;2.80;1.98;;;;;;;7.33;76.19;93532.13;2065112;69;20139;-75
2024/02/20 06:15:38;;;;;;;3.55;2.50;;;;;;;7.37;76.13;93537.31;2065331;69;20556;-75
2024/02/20 06:18:03;;;;;;;2.90;2.30;;;;;;;7.42;75.68;93541.22;2065236;69;20161;-75
2024/02/20 06:20:29;;;;;;;4.43;2.25;;;;;;;7.46;75.14;93545.09;2065217;69;20143;-76
2024/02/20 06:22:55;;;;;;;4.72;2.13;;;;;;;7.45;75.65;93543.63;2065124;69;20554;-75
2024/02/20 06:25:21;;;;;;;3.00;2.03;;;;;;;7.36;76.17;93544.25;2065135;69;20650;-75
2024/02/20 06:27:48;;;;;;;3.50;2.47;;;;;;;6.90;78.11;93538.16;2065213;69;20141;-75
2024/02/20 06:30:14;;;;;;;3.67;2.33;;;;;;;7.14;77.23;93549.41;2065046;69;20171;-75
2024/02/20 06:32:40;;;;;;;2.83;2.13;;;;;;;7.12;77.20;93538.03;2064768;69;20156;-77
2024/02/20 06:35:09;;;;;;;5.75;3.00;;;;;;;6.88;77.73;93533.13;2065023;69;20148;-77
2024/02/20 06:37:35;;;;;;;4.38;2.30;;;;;;;6.97;77.96;93542.97;2064927;69;20141;-78
2024/02/20 06:40:00;;;;;;;5.53;2.72;;;;;;;7.15;77.74;93550.16;2064513;69;20493;-76
2024/02/20 06:42:29;;;;;;;3.03;2.20;;;;;;;7.26;76.94;93546.19;2064978;69;20194;-77
2024/02/20 06:44:54;;;;;;;6.75;3.95;;;;;;;7.24;76.85;93555.16;2065090;69;20152;-75
2024/02/20 06:47:20;;;;;;;3.72;2.72;;;;;;;7.06;77.23;93536.78;2065115;69;20238;-75
2024/02/20 06:49:45;;;;;;;6.95;2.50;;;;;;;7.24;77.34;93557.19;2065020;69;20207;-78
2024/02/20 06:52:11;;;;;;;4.45;2.83;;;;;;;7.26;77.54;93549.72;2065031;69;20168;-78
2024/02/20 06:54:36;;;;;;;3.55;2.60;;;;;;;7.31;77.28;93562.00;2065047;69;20270;-77
2024/02/20 06:57:02;;;;;;;5.72;2.90;;;;;;;7.18;77.61;93565.06;2065072;69;20147;-77
2024/02/20 06:59:28;;;;;;;8.40;5.38;;;;;;;7.29;76.91;93565.41;2065017;69;20263;-77
2024/02/20 07:01:54;;;;;;;18.60;11.00;;;;;;;6.92;77.80;93583.09;2065091;69;20605;-76
2024/02/20 07:04:19;;;;;;;10.95;5.75;;;;;;;6.90;79.04;93585.72;2064876;69;20152;-76
2024/02/20 07:06:45;;;;;;;9.23;4.18;;;;;;;6.96;78.46;93586.25;2064730;69;20244;-77
2024/02/20 07:09:11;;;;;;;8.50;5.10;;;;;;;6.98;78.54;93589.25;2064333;69;20141;-76
2024/02/20 07:11:36;;;;;;;14.63;7.93;;;;;;;6.91;78.60;93593.56;2064931;69;20624;-77
2024/02/20 07:14:02;;;;;;;9.70;5.95;;;;;;;6.67;79.54;93594.22;2065134;69;20308;-77
2024/02/20 07:16:27;;;;;;;13.43;8.20;;;;;;;6.23;81.03;93553.31;2064949;69;20545;-78
2024/02/20 07:18:53;;;;;;;12.45;7.47;;;;;;;6.89;79.74;93599.00;2065090;69;20180;-75
2024/02/20 07:21:19;;;;;;;13.35;5.90;;;;;;;7.23;77.83;93600.50;2065308;69;20260;-75
2024/02/20 07:23:44;;;;;;;8.80;5.13;;;;;;;7.41;77.94;93588.09;2064961;69;20164;-78
2024/02/20 07:26:10;;;;;;;8.98;4.53;;;;;;;7.54;77.41;93584.28;2064802;69;20124;-76
2024/02/20 07:28:37;;;;;;;9.38;5.18;;;;;;;7.64;77.32;93585.16;2065125;69;20149;-78
2024/02/20 07:31:03;;;;;;;10.30;5.97;;;;;;;7.25;78.28;93584.66;2065115;69;20148;-76
2024/02/20 07:33:29;;;;;;;9.65;5.03;;;;;;;7.19;79.24;93588.97;2064908;69;20281;-76
2024/02/20 07:35:54;;;;;;;8.07;4.82;;;;;;;7.77;77.68;93586.94;2064877;69;20144;-76
2024/02/20 07:38:20;;;;;;;9.30;4.90;;;;;;;8.03;76.69;93583.56;2064921;69;20145;-78
2024/02/20 07:40:45;;;;;;;8.50;5.43;;;;;;;8.13;76.56;93597.69;2064635;69;20172;-77
2024/02/20 07:43:11;;;;;;;7.80;5.03;;;;;;;8.21;76.57;93592.75;2065140;69;20151;-77
2024/02/20 07:45:37;;;;;;;7.90;4.38;;;;;;;8.28;76.23;93589.13;2064746;69;20149;-75
2024/02/20 07:48:04;;;;;;;7.00;3.70;;;;;;;8.46;74.99;93592.00;2065293;69;20144;-77
2024/02/20 07:50:30;;;;;;;4.93;3.10;;;;;;;8.55;75.15;93597.69;2065571;69;20157;-79
2024/02/20 07:56:42;;;;;;;3.17;1.45;;;;;;;8.75;73.00;93598.63;2065257;69;20503;-75
2024/02/20 07:59:10;;;;;;;3.30;1.50;;;;;;;8.46;72.12;93600.41;2065369;69;20149;-76
2024/02/20 08:01:36;;;;;;;1.77;1.35;;;;;;;8.64;71.91;93601.91;2065281;69;20156;-76
2024/02/20 08:04:02;;;;;;;8.18;4.60;;;;;;;8.23;74.08;93595.72;2065253;69;20145;-77
2024/02/20 08:06:27;;;;;;;4.65;3.25;;;;;;;7.80;76.42;93600.56;2065335;69;20508;-76
2024/02/20 08:08:53;;;;;;;5.63;2.67;;;;;;;8.25;74.31;93600.78;2065387;69;20656;-76
2024/02/20 08:11:18;;;;;;;5.68;2.97;;;;;;;8.27;74.21;93598.88;2065452;69;20585;-75
2024/02/20 08:17:31;;;;;;;6.72;3.40;;;;;;;8.67;75.13;93605.66;2065339;69;20123;-75
2024/02/20 08:19:57;;;;;;;4.47;2.90;;;;;;;8.84;74.44;93619.66;2064730;69;20141;-75
2024/02/20 08:22:22;;;;;;;5.35;2.75;;;;;;;8.84;73.62;93603.59;2065372;69;20137;-75
2024/02/20 08:24:48;;;;;;;7.38;2.88;;;;;;;8.25;74.55;93626.03;2065480;69;20817;-75
2024/02/20 08:27:14;;;;;;;5.13;2.70;;;;;;;8.25;75.49;93621.16;2065497;69;20156;-74
2024/02/20 08:29:39;;;;;;;5.30;2.78;;;;;;;8.71;74.12;93622.81;2064852;69;20180;-75
2024/02/20 08:32:05;;;;;;;9.65;4.47;;;;;;;8.58;73.57;93624.63;2065420;69;20141;-77
2024/02/20 08:34:31;;;;;;;5.68;3.50;;;;;;;8.84;71.88;93631.66;2065240;69;20245;-75
2024/02/20 08:36:56;;;;;;;10.27;4.03;;;;;;;8.67;73.08;93634.47;2065268;69;20228;-76
2024/02/20 08:39:25;;;;;;;4.05;2.17;;;;;;;8.72;73.47;93635.53;2065424;69;20160;-75
2024/02/20 08:41:50;;;;;;;4.32;2.05;;;;;;;8.63;72.71;93634.84;2065316;69;20194;-75
2024/02/20 08:44:16;;;;;;;3.92;2.00;;;;;;;8.60;71.44;93638.06;2065239;69;20263;-75
2024/02/20 08:46:41;;;;;;;3.55;1.92;;;;;;;8.73;71.28;93639.81;2065214;69;20227;-76
2024/02/20 08:49:07;;;;;;;5.68;2.22;;;;;;;8.75;71.91;93626.72;2065294;69;20158;-78
2024/02/20 08:51:33;;;;;;;2.50;1.80;;;;;;;8.78;71.62;93639.56;2065382;69;20149;-75
2024/02/20 08:53:59;;;;;;;2.67;1.77;;;;;;;9.08;70.60;93644.13;2065125;69;20168;-75
2024/02/20 08:56:25;;;;;;;2.58;1.98;;;;;;;9.11;70.27;93637.34;2065376;69;20165;-78
2024/02/20 08:58:51;;;;;;;2.65;1.70;;;;;;;9.36;69.94;93642.13;2065309;69;20133;-76
2024/02/20 09:01:17;;;;;;;3.67;1.50;;;;;;;9.05;71.11;93648.09;2062113;69;20232;-76
2024/02/20 09:03:43;;;;;;;3.25;1.83;;;;;;;8.79;70.88;93643.13;2065240;69;20271;-78
2024/02/20 09:06:08;;;;;;;2.33;1.55;;;;;;;9.29;69.51;93654.19;2064963;69;20148;-78
2024/02/20 09:08:34;;;;;;;2.47;1.80;;;;;;;9.26;70.07;93655.38;2065188;69;20531;-79
2024/02/20 09:11:03;;;;;;;3.13;1.90;;;;;;;9.37;69.94;93658.41;2064706;69;20166;-77
2024/02/20 09:13:31;;;;;;;2.92;2.00;;;;;;;9.08;69.55;93640.59;2065261;69;20260;-76
2024/02/20 09:15:56;;;;;;;2.33;1.90;;;;;;;9.21;70.33;93673.19;2064775;69;20612;-77
2024/02/20 09:18:24;;;;;;;4.50;2.20;;;;;;;9.31;69.35;93666.34;2065131;69;20183;-75
2024/02/20 09:20:50;;;;;;;2.35;1.90;;;;;;;9.35;68.98;93663.13;2065297;69;20231;-76
2024/02/20 09:23:16;;;;;;;3.50;2.03;;;;;;;9.42;69.40;93659.47;2064631;69;20160;-76
2024/02/20 09:25:43;;;;;;;2.75;2.00;;;;;;;9.31;69.20;93663.53;2065228;69;20156;-76
2024/02/20 09:28:09;;;;;;;2.97;2.00;;;;;;;8.89;70.32;93672.81;2064652;69;20172;-77
2024/02/20 09:30:36;;;;;;;2.45;2.00;;;;;;;8.61;71.97;93676.03;2065300;69;20145;-77
2024/02/20 09:33:02;;;;;;;3.35;2.10;;;;;;;8.75;71.72;93682.88;2065293;69;20149;-78
2024/02/20 09:35:27;;;;;;;2.90;1.88;;;;;;;8.10;73.61;93677.34;2065139;69;20137;-75
2024/02/20 09:37:53;;;;;;;4.55;2.35;;;;;;;8.36;73.13;93690.84;2065181;69;20319;-75
2024/02/20 09:40:19;;;;;;;4.05;2.40;;;;;;;8.50;72.76;93687.75;2065180;69;20710;-76
2024/02/20 09:42:49;;;;;;;4.13;1.88;;;;;;;8.72;71.09;93691.69;2065071;69;20615;-77
2024/02/20 09:45:19;;;;;;;3.97;1.60;;;;;;;8.90;71.46;93702.38;2065218;69;20141;-75
2024/02/20 09:47:49;;;;;;;3.55;1.75;;;;;;;8.50;72.96;93696.91;2064636;69;20137;-75
2024/02/20 09:50:16;;;;;;;2.08;1.60;;;;;;;8.39;74.04;93695.31;2065135;69;20195;-77
2024/02/20 09:52:50;;;;;;;1.98;1.58;;;;;;;8.80;72.73;93695.16;2064934;69;20181;-75
2024/02/20 09:55:18;;;;;;;3.85;1.60;;;;;;;8.99;72.06;93689.00;2065140;69;20750;-77
2024/02/20 09:57:44;;;;;;;3.35;1.75;;;;;;;9.60;71.77;93697.47;2065094;69;20129;-77
2024/02/20 10:00:11;;;;;;;4.15;2.50;;;;;;;9.33;70.59;93697.41;2065140;69;20195;-78
2024/02/20 10:02:43;;;;;;;11.43;7.00;;;;;;;9.58;69.90;93699.41;2065258;69;20160;-79
2024/02/20 10:05:15;;;;;;;4.47;2.92;;;;;;;9.13;71.58;93687.34;2064893;69;20176;-79
2024/02/20 10:07:40;;;;;;;5.25;2.67;;;;;;;10.06;70.82;93699.69;2065133;69;20153;-77
2024/02/20 10:10:11;;;;;;;11.40;6.75;;;;;;;9.80;69.37;93695.53;2064490;69;20159;-77
2024/02/20 10:12:39;;;;;;;3.53;2.08;;;;;;;10.29;68.74;93698.63;2065138;69;20615;-78
2024/02/20 10:15:08;;;;;;;3.50;1.50;;;;;;;10.79;66.67;93701.78;2065121;69;20144;-77
2024/02/20 10:17:38;;;;;;;4.55;1.90;;;;;;;11.21;65.04;93709.13;2065059;69;20145;-77
2024/02/20 10:24:05;;;;;;;2.33;1.17;;;;;;;11.66;63.64;93701.88;2065155;69;20190;-80
2024/02/20 10:26:35;;;;;;;3.20;1.13;;;;;;;10.83;62.89;93704.91;2065014;69;20244;-79
2024/02/20 10:29:10;;;;;;;2.35;0.95;;;;;;;11.17;61.92;93703.19;2065116;69;20539;-80
2024/02/20 10:31:36;;;;;;;5.63;2.88;;;;;;;11.44;62.06;93703.81;2065160;69;20164;-78
2024/02/20 10:34:02;;;;;;;4.55;2.55;;;;;;;12.17;62.33;93699.16;2064929;69;20137;-78
2024/02/20 10:36:28;;;;;;;0.88;0.80;;;;;;;14.10;58.49;93699.34;2065019;69;20140;-78
2024/02/20 10:39:07;;;;;;;1.63;1.10;;;;;;;14.95;56.29;93696.16;2064982;69;20137;-75
2024/02/20 10:41:33;;;;;;;0.80;0.70;;;;;;;16.46;52.06;93709.78;2064931;69;20155;-77
2024/02/20 10:43:59;;;;;;;0.55;0.55;;;;;;;15.49;51.14;93697.19;2064791;69;20210;-76
2024/02/20 10:46:26;;;;;;;0.70;0.70;;;;;;;15.28;50.69;93695.25;2064979;69;20145;-76
2024/02/20 10:48:56;;;;;;;0.57;0.57;;;;;;;16.86;48.97;93697.06;2064845;69;20125;-76
2024/02/20 10:51:26;;;;;;;0.80;0.60;;;;;;;18.59;46.87;93687.16;2065041;69;20631;-76
2024/02/20 10:53:58;;;;;;;0.40;0.40;;;;;;;19.54;45.58;93702.16;2065127;69;20236;-78
2024/02/20 10:56:25;;;;;;;0.50;0.50;;;;;;;18.18;46.26;93690.91;2064946;69;20162;-75
2024/02/20 10:58:52;;;;;;;1.20;0.40;;;;;;;17.79;44.59;93691.88;2064899;69;20141;-75
2024/02/20 11:01:18;;;;;;;0.65;0.40;;;;;;;19.55;43.82;93692.94;2064377;69;20152;-76
2024/02/20 11:03:46;;;;;;;0.77;0.60;;;;;;;20.98;42.47;93698.00;2064766;69;20165;-78
2024/02/20 11:06:12;;;;;;;0.70;0.50;;;;;;;21.36;41.28;93700.88;2065021;69;20139;-77
2024/02/20 11:08:38;;;;;;;0.75;0.68;;;;;;;18.54;43.82;93686.22;2064946;69;20148;-78
2024/02/20 11:14:51;;;;;;;0.50;0.50;;;;;;;19.11;42.63;93691.00;2065028;69;20166;-76
2024/02/20 11:17:17;;;;;;;0.50;0.50;;;;;;;19.40;42.13;93690.84;2065303;69;20148;-78
2024/02/20 11:19:42;;;;;;;1.48;0.70;;;;;;;17.85;45.46;93683.63;2065308;69;20153;-76
2024/02/20 11:22:08;;;;;;;0.90;0.90;;;;;;;21.92;40.26;93687.81;2064814;69;20133;-77
2024/02/20 11:24:34;;;;;;;0.85;0.63;;;;;;;21.51;40.18;93682.81;2065292;69;20191;-80
2024/02/20 11:27:02;;;;;;;0.60;0.60;;;;;;;21.03;39.99;93680.34;2064673;69;20226;-79
2024/02/20 11:29:28;;;;;;;0.85;0.50;;;;;;;21.45;40.98;93680.47;2065322;69;20140;-76
2024/02/20 11:31:54;;;;;;;0.43;0.43;;;;;;;24.67;34.75;93686.50;2065379;69;20153;-75
2024/02/20 11:34:21;;;;;;;0.50;0.40;;;;;;;26.63;33.30;93689.75;2065305;69;20181;-76
2024/02/20 11:36:47;;;;;;;0.40;0.40;;;;;;;22.73;34.02;93683.31;2065445;69;20194;-75
2024/02/20 11:39:16;;;;;;;0.30;0.30;;;;;;;27.27;31.64;93684.25;2065462;69;20148;-75
2024/02/20 11:41:44;;;;;;;0.35;0.30;;;;;;;28.70;30.18;93691.66;2065544;69;20220;-76
2024/02/20 11:44:10;;;;;;;0.63;0.38;;;;;;;23.84;32.19;93682.25;2065234;69;20219;-75
2024/02/20 11:46:35;;;;;;;0.20;0.20;;;;;;;27.78;28.69;93687.81;2065342;69;20229;-75
2024/02/20 11:49:01;;;;;;;0.30;0.30;;;;;;;31.71;26.53;93687.44;2065290;69;20184;-74
2024/02/20 11:51:27;;;;;;;0.20;0.20;;;;;;;30.82;26.42;93689.00;2064954;69;20149;-76
2024/02/20 11:54:06;;;;;;;0.43;0.30;;;;;;;30.76;25.47;93680.28;2065544;69;20248;-76
2024/02/20 11:56:33;;;;;;;1.95;0.20;;;;;;;31.79;26.07;93684.47;2065418;69;20149;-78
2024/02/20 11:58:59;;;;;;;0.47;0.38;;;;;;;31.64;24.17;93684.53;2065526;69;20156;-75
2024/02/20 12:01:29;;;;;;;0.40;0.17;;;;;;;33.37;22.56;93684.94;2065403;69;20596;-77
2024/02/20 12:03:56;;;;;;;0.77;0.20;;;;;;;33.41;23.71;93661.56;2065355;69;20184;-77
2024/02/20 12:06:27;;;;;;;1.58;0.30;;;;;;;30.65;24.12;93670.78;2064970;69;20141;-76